createdAt,value
2023-03-19T00:00:46.229Z,58.35
2023-03-19T00:03:34.315Z,57.75
2023-03-19T00:06:02.494Z,55.17
2023-03-19T00:08:29.480Z,60.97
2023-03-19T00:10:56.736Z,56.65
2023-03-19T00:13:23.649Z,56.72
2023-03-19T00:15:50.991Z,52.35
2023-03-19T00:18:18.256Z,57.17
2023-03-19T00:20:45.785Z,52.10
2023-03-19T00:23:12.806Z,54.55
2023-03-19T00:25:40.353Z,53.22
2023-03-19T00:28:07.923Z,56.03
2023-03-19T00:30:35.249Z,52.95
2023-03-19T00:33:02.867Z,64.47
2023-03-19T00:35:30.167Z,53.40
2023-03-19T00:37:57.664Z,63.78
2023-03-19T00:40:25.214Z,58.08
2023-03-19T00:42:52.129Z,63.45
2023-03-19T00:45:19.532Z,54.42
2023-03-19T00:47:46.535Z,58.83
2023-03-19T00:50:14.006Z,59.10
2023-03-19T00:52:41.604Z,63.85
2023-03-19T00:55:09.547Z,56.53
2023-03-19T00:57:36.560Z,59.53
2023-03-19T01:00:04.992Z,57.22
2023-03-19T01:02:32.505Z,57.00
2023-03-19T01:04:59.920Z,61.53
2023-03-19T01:07:26.998Z,60.85
2023-03-19T01:09:54.512Z,58.47
2023-03-19T01:12:21.404Z,63.28
2023-03-19T01:14:48.689Z,63.63
2023-03-19T01:17:16.115Z,74.45
2023-03-19T01:19:43.428Z,68.00
2023-03-19T01:22:10.591Z,71.80
2023-03-19T01:24:40.997Z,70.57
2023-03-19T01:27:08.484Z,66.97
2023-03-19T01:29:36.615Z,64.88
2023-03-19T01:32:12.053Z,61.80
2023-03-19T01:34:59.302Z,68.75
2023-03-19T01:37:26.489Z,65.03
2023-03-19T01:39:53.948Z,65.57
2023-03-19T01:42:21.414Z,64.90
2023-03-19T01:45:46.731Z,64.68
2023-03-19T01:48:59.984Z,69.35
2023-03-19T01:51:35.999Z,62.75
2023-03-19T01:54:43.125Z,61.25
2023-03-19T01:57:36.550Z,62.53
2023-03-19T02:00:22.860Z,58.42
2023-03-19T02:02:58.284Z,65.07
2023-03-19T02:05:47.631Z,59.88
2023-03-19T02:08:18.924Z,59.35
2023-03-19T02:10:48.108Z,61.03
2023-03-19T02:13:16.178Z,60.60
2023-03-19T02:15:43.557Z,61.10
2023-03-19T02:18:11.082Z,58.65
2023-03-19T02:21:03.247Z,64.47
2023-03-19T02:23:55.860Z,60.45
2023-03-19T02:26:42.686Z,59.33
2023-03-19T02:29:10.332Z,62.78
2023-03-19T02:31:37.394Z,65.97
2023-03-19T02:34:27.675Z,65.95
2023-03-19T02:37:05.469Z,66.43
2023-03-19T02:40:12.776Z,56.78
2023-03-19T02:42:39.877Z,54.78
2023-03-19T02:45:08.732Z,54.85
2023-03-19T02:47:36.049Z,56.67
2023-03-19T02:50:04.131Z,64.40
2023-03-19T02:52:31.175Z,61.55
2023-03-19T02:54:58.366Z,60.38
2023-03-19T02:57:25.901Z,52.65
2023-03-19T02:59:53.218Z,49.95
2023-03-19T03:02:20.547Z,50.83
2023-03-19T03:04:48.841Z,51.42
2023-03-19T03:07:15.866Z,53.13
2023-03-19T03:09:43.133Z,56.80
2023-03-19T03:12:10.555Z,90.32
2023-03-19T03:14:38.028Z,62.45
2023-03-19T03:17:05.750Z,59.42
2023-03-19T03:19:33.214Z,55.60
2023-03-19T03:22:01.023Z,51.47
2023-03-19T03:24:28.614Z,53.78
2023-03-19T03:26:57.863Z,52.53
2023-03-19T03:29:25.897Z,51.35
2023-03-19T03:31:53.096Z,51.13
2023-03-19T03:34:20.916Z,56.08
2023-03-19T03:36:47.952Z,49.28
2023-03-19T03:39:15.300Z,47.05
2023-03-19T03:41:42.534Z,52.85
2023-03-19T03:44:10.235Z,54.13
2023-03-19T03:46:40.069Z,46.10
2023-03-19T03:49:07.491Z,56.47
2023-03-19T03:51:34.621Z,53.08
2023-03-19T03:54:02.626Z,51.90
2023-03-19T03:56:31.363Z,48.80
2023-03-19T03:58:58.724Z,47.33
2023-03-19T04:01:25.832Z,47.83
2023-03-19T04:03:56.400Z,48.47
2023-03-19T04:06:25.636Z,50.53
2023-03-19T04:09:09.060Z,52.25
2023-03-19T04:11:38.844Z,50.42
2023-03-19T04:14:08.008Z,53.20
2023-03-19T04:16:36.599Z,51.08
2023-03-19T04:19:04.912Z,50.58
2023-03-19T04:21:31.981Z,54.15
2023-03-19T04:23:59.269Z,48.65
2023-03-19T04:26:27.019Z,48.72
2023-03-19T04:28:54.609Z,49.47
2023-03-19T04:31:22.095Z,43.08
2023-03-19T04:33:49.592Z,47.13
2023-03-19T04:36:17.857Z,48.33
2023-03-19T04:38:45.113Z,47.75
2023-03-19T04:41:18.205Z,45.95
2023-03-19T04:43:59.017Z,51.15
2023-03-19T04:46:28.728Z,50.00
2023-03-19T04:48:56.043Z,49.67
2023-03-19T04:51:24.036Z,49.13
2023-03-19T04:53:52.056Z,52.28
2023-03-19T04:56:19.449Z,48.50
2023-03-19T04:58:46.850Z,48.28
2023-03-19T05:01:14.464Z,46.67
2023-03-19T05:03:59.093Z,48.92
2023-03-19T05:06:27.211Z,49.60
2023-03-19T05:08:55.249Z,47.83
2023-03-19T05:11:23.174Z,48.13
2023-03-19T05:14:16.849Z,41.85
2023-03-19T05:16:57.019Z,44.60
2023-03-19T05:19:26.296Z,41.10
2023-03-19T05:21:53.593Z,37.67
2023-03-19T05:24:25.600Z,37.58
2023-03-19T05:26:54.208Z,37.50
2023-03-19T05:29:42.548Z,37.60
2023-03-19T05:32:47.127Z,38.97
2023-03-19T05:35:30.855Z,36.78
2023-03-19T05:37:59.520Z,44.10
2023-03-19T05:40:27.212Z,40.75
2023-03-19T05:42:55.268Z,37.95
2023-03-19T05:45:25.694Z,39.90
2023-03-19T05:47:56.696Z,40.72
2023-03-19T05:50:25.744Z,39.85
2023-03-19T05:53:10.781Z,34.15
2023-03-19T05:55:41.147Z,61.70
2023-03-19T05:58:11.236Z,36.10
2023-03-19T06:00:39.147Z,37.60
2023-03-19T06:03:06.359Z,40.42
2023-03-19T06:05:42.818Z,39.33
2023-03-19T06:08:21.945Z,37.72
2023-03-19T06:11:01.095Z,38.53
2023-03-19T06:13:28.809Z,34.17
2023-03-19T06:16:01.265Z,34.85
2023-03-19T06:18:34.616Z,35.60
2023-03-19T06:23:34.116Z,37.65
2023-03-19T06:26:02.801Z,37.13
2023-03-19T06:28:36.547Z,40.38
2023-03-19T06:31:05.261Z,36.47
2023-03-19T06:33:51.331Z,42.40
2023-03-19T06:36:19.246Z,40.72
2023-03-19T06:38:48.530Z,37.08
2023-03-19T06:41:16.617Z,35.92
2023-03-19T06:43:44.385Z,45.95
2023-03-19T06:46:12.130Z,47.05
2023-03-19T06:48:39.229Z,44.45
2023-03-19T06:51:07.020Z,51.58
2023-03-19T06:53:34.879Z,47.30
2023-03-19T06:56:02.457Z,42.72
2023-03-19T06:58:29.428Z,34.35
2023-03-19T07:00:58.576Z,38.33
2023-03-19T07:03:25.692Z,48.55
2023-03-19T07:05:53.530Z,37.28
2023-03-19T07:08:20.702Z,35.72
2023-03-19T07:10:48.439Z,43.53
2023-03-19T07:13:15.409Z,37.70
2023-03-19T07:15:42.919Z,35.08
2023-03-19T07:18:10.143Z,45.00
2023-03-19T07:20:37.614Z,34.53
2023-03-19T07:23:04.784Z,39.85
2023-03-19T07:25:32.312Z,45.97
2023-03-19T07:27:59.645Z,43.35
2023-03-19T07:30:27.153Z,41.30
2023-03-19T07:32:55.422Z,43.63
2023-03-19T07:35:23.033Z,39.80
2023-03-19T07:37:50.748Z,46.50
2023-03-19T07:40:18.613Z,48.40
2023-03-19T07:42:45.638Z,44.78
2023-03-19T07:45:13.638Z,41.88
2023-03-19T07:47:40.976Z,45.65
2023-03-19T07:50:09.983Z,44.33
2023-03-19T07:52:37.108Z,42.80
2023-03-19T07:55:05.352Z,38.70
2023-03-19T07:57:32.940Z,39.03
2023-03-19T08:00:00.256Z,30.50
2023-03-19T08:02:27.376Z,36.35
2023-03-19T08:04:55.714Z,35.00
2023-03-19T08:07:22.946Z,33.13
2023-03-19T08:09:50.340Z,29.25
2023-03-19T08:12:17.314Z,29.05
2023-03-19T08:14:44.910Z,31.10
2023-03-19T08:17:12.585Z,28.33
2023-03-19T08:19:40.173Z,24.98
2023-03-19T08:22:07.302Z,26.35
2023-03-19T08:24:35.272Z,24.45
2023-03-19T08:27:02.329Z,22.45
2023-03-19T08:29:29.915Z,26.08
2023-03-19T08:31:58.591Z,22.52
2023-03-19T08:34:26.932Z,20.45
2023-03-19T08:36:53.831Z,19.17
2023-03-19T08:39:21.130Z,17.08
2023-03-19T08:41:48.235Z,17.05
2023-03-19T08:44:15.817Z,15.30
2023-03-19T08:46:43.028Z,13.93
2023-03-19T08:49:10.947Z,12.80
2023-03-19T08:51:38.364Z,14.43
2023-03-19T08:54:06.114Z,13.15
2023-03-19T08:56:33.065Z,12.00
2023-03-19T08:59:00.450Z,11.48
2023-03-19T09:01:27.700Z,12.95
2023-03-19T09:03:55.106Z,10.65
2023-03-19T09:06:22.222Z,10.48
2023-03-19T09:08:49.730Z,9.27
2023-03-19T09:11:18.039Z,7.75
2023-03-19T09:13:45.550Z,9.68
2023-03-19T09:16:12.636Z,11.43
2023-03-19T09:18:40.287Z,9.63
2023-03-19T09:21:07.490Z,9.10
2023-03-19T09:23:35.144Z,8.85
2023-03-19T09:26:02.030Z,7.47
2023-03-19T09:28:29.284Z,7.82
2023-03-19T09:30:56.363Z,8.02
2023-03-19T09:33:23.718Z,6.82
2023-03-19T09:35:53.340Z,7.93
2023-03-19T09:38:21.898Z,7.47
2023-03-19T09:41:12.767Z,9.30
2023-03-19T09:44:00.267Z,6.95
2023-03-19T09:47:19.153Z,8.02
2023-03-19T09:49:50.910Z,6.50
2023-03-19T09:52:50.732Z,6.05
2023-03-19T09:55:24.285Z,6.30
2023-03-19T09:57:56.109Z,7.47
2023-03-19T10:00:29.822Z,6.68
2023-03-19T10:03:29.812Z,5.50
2023-03-19T10:06:25.410Z,6.82
2023-03-19T10:09:32.583Z,5.53
2023-03-19T10:12:17.447Z,6.88
2023-03-19T10:15:17.248Z,5.07
2023-03-19T10:18:21.102Z,5.47
2023-03-19T10:21:09.577Z,5.90
2023-03-19T10:24:04.211Z,6.10
2023-03-19T10:26:37.482Z,5.28
2023-03-19T10:29:20.653Z,6.15
2023-03-19T10:31:59.526Z,4.65
2023-03-19T10:34:37.762Z,5.30
2023-03-19T10:37:12.470Z,4.43
2023-03-19T10:39:43.766Z,4.93
2023-03-19T10:42:58.053Z,6.10
2023-03-19T10:45:37.901Z,5.15
2023-03-19T10:48:13.319Z,4.82
2023-03-19T10:50:55.195Z,5.47
2023-03-19T10:53:39.206Z,6.60
2023-03-19T10:56:23.267Z,4.45
2023-03-19T10:59:25.336Z,5.18
2023-03-19T11:01:59.527Z,5.93
2023-03-19T11:04:28.729Z,4.57
2023-03-19T11:07:03.337Z,4.53
2023-03-19T11:09:36.868Z,5.20
2023-03-19T11:12:37.275Z,5.25
2023-03-19T11:15:22.133Z,6.07
2023-03-19T11:17:58.394Z,6.25
2023-03-19T11:20:36.339Z,6.55
2023-03-19T11:23:18.029Z,5.45
2023-03-19T11:25:53.482Z,5.00
2023-03-19T11:28:26.376Z,4.97
2023-03-19T11:31:00.753Z,4.10
2023-03-19T11:33:42.933Z,4.40
2023-03-19T11:36:37.921Z,5.35
2023-03-19T11:40:10.621Z,5.10
2023-03-19T11:42:51.424Z,4.45
2023-03-19T11:45:42.080Z,6.65
2023-03-19T11:48:19.435Z,5.18
2023-03-19T11:50:58.528Z,4.65
2023-03-19T11:53:56.762Z,5.30
2023-03-19T11:56:55.644Z,5.38
2023-03-19T12:00:10.697Z,5.00
2023-03-19T12:03:32.133Z,5.40
2023-03-19T12:06:38.134Z,5.20
2023-03-19T12:09:35.343Z,4.28
2023-03-19T12:12:46.819Z,4.43
2023-03-19T12:15:54.960Z,5.50
2023-03-19T12:19:11.922Z,5.13
2023-03-19T12:22:03.430Z,5.88
2023-03-19T12:25:01.492Z,5.43
2023-03-19T12:27:55.585Z,5.40
2023-03-19T12:30:42.193Z,4.03
2023-03-19T12:33:43.569Z,4.45
2023-03-19T12:36:23.487Z,4.25
2023-03-19T12:39:02.343Z,5.00
2023-03-19T12:41:33.816Z,4.45
2023-03-19T12:44:13.743Z,4.38
2023-03-19T12:47:09.665Z,4.85
2023-03-19T12:49:47.530Z,4.20
2023-03-19T12:52:38.003Z,4.53
2023-03-19T12:55:23.076Z,4.95
2023-03-19T12:58:20.709Z,5.03
2023-03-19T13:01:03.628Z,5.22
2023-03-19T13:03:44.543Z,4.72
2023-03-19T13:06:28.688Z,5.43
2023-03-19T13:09:10.216Z,4.28
2023-03-19T13:11:52.692Z,5.50
2023-03-19T13:17:17.174Z,5.20
2023-03-19T13:19:51.045Z,6.60
2023-03-19T13:22:34.579Z,5.03
2023-03-19T13:25:03.714Z,5.30
2023-03-19T13:27:36.304Z,7.13
2023-03-19T13:30:10.083Z,5.57
2023-03-19T13:32:51.407Z,8.10
2023-03-19T13:35:44.562Z,5.03
2023-03-19T13:38:24.686Z,5.00
2023-03-19T13:40:56.538Z,6.07
2023-03-19T13:43:29.966Z,6.95
2023-03-19T13:46:12.554Z,4.95
2023-03-19T13:48:46.922Z,6.95
2023-03-19T13:51:20.172Z,7.05
2023-03-19T13:54:16.374Z,6.25
2023-03-19T13:57:00.918Z,5.38
2023-03-19T13:59:39.864Z,5.68
2023-03-19T14:02:21.909Z,5.68
2023-03-19T14:07:53.160Z,6.60
2023-03-19T14:10:32.040Z,7.35
2023-03-19T14:13:18.504Z,5.57
2023-03-19T14:15:51.946Z,7.45
2023-03-19T14:18:24.686Z,7.82
2023-03-19T14:21:07.093Z,6.88
2023-03-19T14:23:44.265Z,5.25
2023-03-19T14:26:17.925Z,6.25
2023-03-19T14:28:44.935Z,5.25
2023-03-19T14:31:31.168Z,5.05
2023-03-19T14:34:16.555Z,4.75
2023-03-19T14:37:03.935Z,5.05
2023-03-19T14:39:42.319Z,5.50
2023-03-19T14:42:47.105Z,4.60
2023-03-19T14:45:32.014Z,5.18
2023-03-19T14:48:42.021Z,5.65
2023-03-19T14:51:22.444Z,5.03
2023-03-19T14:54:28.370Z,5.05
2023-03-19T14:56:57.477Z,4.97
2023-03-19T14:59:24.797Z,5.65
2023-03-19T15:01:54.011Z,4.93
2023-03-19T15:04:26.089Z,5.78
2023-03-19T15:06:59.822Z,4.57
2023-03-19T15:09:32.195Z,4.75
2023-03-19T15:12:48.131Z,5.85
2023-03-19T15:15:24.395Z,5.20
2023-03-19T15:18:10.826Z,5.65
2023-03-19T15:20:45.473Z,5.38
2023-03-19T15:23:26.745Z,5.70
2023-03-19T15:26:01.478Z,5.95
2023-03-19T15:28:38.158Z,5.97
2023-03-19T15:31:29.136Z,12.23
2023-03-19T15:33:54.252Z,8.18
2023-03-19T15:36:33.185Z,8.13
2023-03-19T15:39:11.787Z,7.90
2023-03-19T15:41:45.968Z,7.40
2023-03-19T15:44:28.881Z,6.80
2023-03-19T15:46:58.025Z,7.38
2023-03-19T15:49:56.408Z,6.60
2023-03-19T15:52:26.338Z,7.22
2023-03-19T15:54:56.239Z,6.40
2023-03-19T15:57:25.092Z,7.80
2023-03-19T15:59:56.075Z,7.50
2023-03-19T16:02:31.993Z,7.00
2023-03-19T16:05:21.038Z,8.02
2023-03-19T16:07:59.473Z,8.63
2023-03-19T16:10:42.204Z,7.25
2023-03-19T16:13:37.736Z,12.02
2023-03-19T16:16:08.570Z,7.80
2023-03-19T16:18:52.168Z,8.20
2023-03-19T16:21:40.180Z,7.68
2023-03-19T16:24:30.796Z,6.95
2023-03-19T16:26:58.985Z,7.05
2023-03-19T16:29:30.271Z,6.85
2023-03-19T16:32:03.180Z,8.05
2023-03-19T16:34:47.480Z,9.27
2023-03-19T16:37:55.045Z,9.85
2023-03-19T16:40:23.600Z,7.63
2023-03-19T16:42:52.761Z,9.07
2023-03-19T16:45:28.431Z,11.93
2023-03-19T16:47:58.368Z,8.00
2023-03-19T16:50:41.282Z,9.50
2023-03-19T16:53:26.691Z,9.45
2023-03-19T16:55:57.194Z,10.13
2023-03-19T16:58:37.586Z,10.40
2023-03-19T17:01:14.585Z,11.63
2023-03-19T17:03:41.962Z,9.23
2023-03-19T17:06:14.623Z,8.82
2023-03-19T17:08:42.753Z,8.40
2023-03-19T17:11:23.308Z,8.90
2023-03-19T17:13:50.774Z,10.32
2023-03-19T17:16:18.108Z,9.32
2023-03-19T17:18:47.749Z,8.00
2023-03-19T17:21:27.076Z,8.30
2023-03-19T17:23:55.399Z,7.78
2023-03-19T17:26:28.629Z,9.25
2023-03-19T17:28:56.612Z,11.13
2023-03-19T17:31:33.047Z,9.60
2023-03-19T17:34:13.742Z,9.88
2023-03-19T17:36:44.436Z,12.07
2023-03-19T17:39:12.066Z,11.85
2023-03-19T17:41:39.708Z,12.98
2023-03-19T17:44:06.971Z,12.57
2023-03-19T17:46:40.908Z,12.40
2023-03-19T17:49:31.779Z,13.52
2023-03-19T17:51:59.859Z,14.05
2023-03-19T17:54:27.806Z,12.65
2023-03-19T17:56:55.697Z,10.93
2023-03-19T17:59:23.225Z,11.05
2023-03-19T18:01:50.868Z,11.48
2023-03-19T18:04:21.035Z,8.60
2023-03-19T18:06:57.605Z,9.88
2023-03-19T18:09:32.781Z,10.10
2023-03-19T18:12:00.232Z,10.30
2023-03-19T18:14:27.296Z,11.48
2023-03-19T18:16:54.867Z,9.65
2023-03-19T18:19:36.085Z,10.70
2023-03-19T18:22:14.909Z,11.32
2023-03-19T18:24:42.288Z,11.05
2023-03-19T18:27:09.450Z,10.73
2023-03-19T18:29:36.480Z,11.95
2023-03-19T18:32:26.065Z,12.30
2023-03-19T18:34:53.552Z,12.75
2023-03-19T18:37:20.931Z,14.35
2023-03-19T18:39:48.953Z,15.93
2023-03-19T18:42:16.633Z,15.07
2023-03-19T18:44:43.805Z,18.70
2023-03-19T18:47:15.784Z,17.02
2023-03-19T18:49:43.711Z,17.95
2023-03-19T18:52:17.236Z,19.05
2023-03-19T18:54:46.868Z,18.25
2023-03-19T18:57:16.425Z,19.00
2023-03-19T18:59:43.851Z,17.90
2023-03-19T19:02:34.747Z,19.75
2023-03-19T19:05:02.155Z,22.02
2023-03-19T19:07:29.688Z,22.45
2023-03-19T19:09:56.722Z,23.88
2023-03-19T19:12:27.079Z,21.35
2023-03-19T19:14:54.406Z,21.17
2023-03-19T19:17:29.421Z,20.02
2023-03-19T19:19:56.483Z,19.90
2023-03-19T19:22:23.867Z,20.77
2023-03-19T19:24:51.090Z,22.13
2023-03-19T19:27:26.488Z,20.50
2023-03-19T19:29:53.703Z,20.30
2023-03-19T19:32:28.561Z,20.65
2023-03-19T19:34:56.549Z,20.08
2023-03-19T19:37:24.278Z,20.30
2023-03-19T19:39:51.798Z,20.63
2023-03-19T19:42:22.603Z,24.20
2023-03-19T19:45:00.319Z,22.73
2023-03-19T19:47:27.879Z,20.00
2023-03-19T19:49:54.815Z,17.60
2023-03-19T19:52:22.596Z,21.05
2023-03-19T19:54:51.612Z,19.05
2023-03-19T19:57:24.627Z,21.00
2023-03-19T19:59:53.985Z,22.40
2023-03-19T20:02:29.313Z,18.33
2023-03-19T20:04:58.401Z,19.05
2023-03-19T20:07:27.138Z,19.40
2023-03-19T20:09:54.081Z,20.63
2023-03-19T20:12:29.313Z,19.35
2023-03-19T20:14:57.419Z,20.73
2023-03-19T20:17:25.178Z,22.27
2023-03-19T20:19:52.529Z,20.13
2023-03-19T20:22:19.849Z,19.38
2023-03-19T20:24:49.546Z,21.50
2023-03-19T20:27:25.456Z,17.33
2023-03-19T20:29:53.745Z,21.17
2023-03-19T20:32:34.119Z,19.85
2023-03-19T20:35:01.963Z,16.95
2023-03-19T20:37:30.089Z,18.73
2023-03-19T20:39:57.087Z,19.58
2023-03-19T20:42:26.463Z,19.52
2023-03-19T20:44:58.498Z,19.40
2023-03-19T20:47:26.273Z,21.60
2023-03-19T20:49:53.899Z,20.10
2023-03-19T20:52:21.440Z,19.05
2023-03-19T20:54:48.863Z,19.42
2023-03-19T20:57:24.231Z,21.13
2023-03-19T20:59:51.234Z,21.67
2023-03-19T21:02:27.538Z,24.45
2023-03-19T21:04:54.720Z,23.20
2023-03-19T21:07:34.469Z,22.15
2023-03-19T21:10:16.619Z,23.85
2023-03-19T21:12:43.854Z,26.45
2023-03-19T21:15:14.529Z,24.38
2023-03-19T21:17:42.238Z,28.45
2023-03-19T21:20:24.120Z,30.02
2023-03-19T21:23:06.763Z,27.25
2023-03-19T21:25:35.691Z,25.48
2023-03-19T21:28:09.980Z,27.17
2023-03-19T21:30:43.547Z,28.38
2023-03-19T21:33:24.375Z,28.17
2023-03-19T21:35:53.926Z,27.67
2023-03-19T21:38:22.570Z,27.52
2023-03-19T21:40:55.016Z,27.30
2023-03-19T21:43:33.501Z,28.52
2023-03-19T21:46:13.818Z,25.88
2023-03-19T21:48:44.937Z,26.73
2023-03-19T21:51:16.570Z,26.13
2023-03-19T21:53:45.571Z,26.45
2023-03-19T21:56:35.505Z,27.67
2023-03-19T21:59:12.874Z,26.30
2023-03-19T22:01:40.577Z,28.52
2023-03-19T22:04:08.079Z,27.75
2023-03-19T22:06:36.462Z,29.35
2023-03-19T22:09:04.378Z,30.88
2023-03-19T22:11:35.925Z,31.70
2023-03-19T22:14:26.913Z,34.47
2023-03-19T22:16:56.538Z,34.85
2023-03-19T22:19:24.575Z,34.25
2023-03-19T22:21:51.922Z,37.72
2023-03-19T22:24:19.132Z,33.88
2023-03-19T22:26:49.471Z,41.30
2023-03-19T22:29:23.505Z,38.17
2023-03-19T22:31:52.596Z,33.67
2023-03-19T22:34:23.696Z,39.47
2023-03-19T22:36:52.559Z,36.65
2023-03-19T22:39:19.985Z,39.75
2023-03-19T22:42:00.352Z,36.45
2023-03-19T22:44:31.199Z,34.58
2023-03-19T22:47:01.044Z,39.17
2023-03-19T22:49:29.820Z,37.80
2023-03-19T22:51:58.250Z,41.33
2023-03-19T22:54:26.406Z,38.13
2023-03-19T22:56:53.352Z,42.17
2023-03-19T22:59:20.530Z,41.42
2023-03-19T23:01:48.529Z,43.22
2023-03-19T23:04:30.571Z,41.85
2023-03-19T23:07:00.368Z,42.65
2023-03-19T23:09:37.803Z,39.60
2023-03-19T23:12:07.326Z,38.45
2023-03-19T23:14:34.910Z,37.28
2023-03-19T23:17:14.288Z,39.80
2023-03-19T23:19:41.561Z,37.78
2023-03-19T23:22:16.270Z,38.22
2023-03-19T23:24:44.611Z,41.50
2023-03-19T23:27:26.035Z,43.83
2023-03-19T23:29:54.442Z,42.85
2023-03-19T23:32:21.933Z,43.38
2023-03-19T23:34:59.522Z,39.75
2023-03-19T23:37:28.822Z,42.42
2023-03-19T23:39:56.431Z,40.97
2023-03-19T23:42:31.466Z,45.70
2023-03-19T23:45:03.665Z,45.95
2023-03-19T23:47:31.043Z,41.88
2023-03-19T23:49:58.995Z,42.70
2023-03-19T23:52:26.146Z,41.42
2023-03-19T23:54:53.420Z,39.28
2023-03-19T23:57:23.177Z,39.60
2023-03-19T23:59:52.295Z,37.80
